Aérodrome :
LOGIN :

S'inscrire | Disclaimer

   EN    FR    IT 

 










Légende :    VFR   VFR Marginal   IFR   IFR Intensif   IFR Très Intensif
Visi : 
Plafond : 
>= 8 km
>= 3000ft
5 à 8 km
1000 à 3000 ft
1500m à 5 km
500 à 1000 ft
800 à 1500m
200 à 500 ft
< 800m
< 200 ft
Symboles :   Orages  Brouillard  Fortes neiges  Fortes précipitations  Vent > 20 kt
SIGMETs :   Divers  Orages  Givrage  Turbulence  Onde Orograph.  Cendres Volcan.






- Altitude de l'aérodrome : 194 ft


EBCV - Chièvres

DERNIER METAR :
  • 201855Z AUTO 10005KT 9999 NCD 01/M01 Q1012 BLU

METARs EXPIRÉS :
  • 201825Z AUTO 10005KT 9999 NCD 01/M01 Q1012 BLU
  • 201755Z AUTO 10008KT 9999 NCD 02/M00 Q1012 BLU
  • 201725Z AUTO 10010KT 9999 NCD 03/00 Q1012 BLU
  • 201655Z AUTO 09006KT 9999 NCD 03/01 Q1013 BLU
  • 201625Z AUTO 08007KT 9999 NCD 03/01 Q1013 BLU

TAF TAF EBCV
Valide du 20 à 19h jusqu'au 21 à 07h UTC


201632Z 2019/2107 10006KT 7000 FEW240
BECMG 2102/2104 3000 BR FEW005 SCT250
PROB30
TEMPO 2104/2107 1500 BR SCT005 BY EBWM



MET'MAP, la Météo Aéronautique d'un coup d'oeil ! - Copyright ORBIFLY Décembre 2007 - Disclaimer

ORBIFLY MET'MAP TEAM :

Programmation & Développement : Alexandra Zaïnal
Conception & Développement : Baudouin d'Aumeries
Co-Programmation & Développement : Marc-Olivier Méhu
Soutien technique & logistique : Manuel Goepfert

Contact : metmap@orbifly.com




SOURCES & CREDITS :

   NOAA